sensor_id;sensor_type;location;lat;lon;timestamp;pressure;altitude;pressure_sealevel;temperature;humidity
68107;BME280;54892;47.488;19.026;2022-12-11T00:01:59;97925.38;;;4.07;98.46
68107;BME280;54892;47.488;19.026;2022-12-11T00:05:04;97914.69;;;3.93;98.28
68107;BME280;54892;47.488;19.026;2022-12-11T00:08:09;97916.22;;;4.09;98.07
68107;BME280;54892;47.488;19.026;2022-12-11T00:11:14;97915.47;;;3.93;98.49
68107;BME280;54892;47.488;19.026;2022-12-11T00:14:17;97906.63;;;3.79;98.62
68107;BME280;54892;47.488;19.026;2022-12-11T00:17:21;97893.81;;;3.83;98.17
68107;BME280;54892;47.488;19.026;2022-12-11T00:20:24;97901.12;;;3.75;99.05
68107;BME280;54892;47.488;19.026;2022-12-11T00:23:30;97898.25;;;3.82;98.68
68107;BME280;54892;47.488;19.026;2022-12-11T00:26:33;97904.75;;;3.90;98.05
68107;BME280;54892;47.488;19.026;2022-12-11T00:29:37;97904.78;;;3.85;97.56
68107;BME280;54892;47.488;19.026;2022-12-11T00:32:40;97897.47;;;3.76;97.17
68107;BME280;54892;47.488;19.026;2022-12-11T00:35:46;97911.31;;;3.77;97.17
68107;BME280;54892;47.488;19.026;2022-12-11T00:38:51;97905.84;;;3.73;97.26
68107;BME280;54892;47.488;19.026;2022-12-11T00:41:55;97901.66;;;3.62;97.30
68107;BME280;54892;47.488;19.026;2022-12-11T00:44:59;97896.72;;;3.65;97.95
68107;BME280;54892;47.488;19.026;2022-12-11T00:48:04;97903.47;;;3.72;97.35
68107;BME280;54892;47.488;19.026;2022-12-11T00:51:08;97903.22;;;3.53;96.86
68107;BME280;54892;47.488;19.026;2022-12-11T00:54:13;97898.53;;;3.55;97.06
68107;BME280;54892;47.488;19.026;2022-12-11T00:57:16;97906.84;;;3.46;97.25
68107;BME280;54892;47.488;19.026;2022-12-11T01:00:20;97908.16;;;3.54;96.81
68107;BME280;54892;47.488;19.026;2022-12-11T01:03:24;97899.56;;;3.69;95.97
68107;BME280;54892;47.488;19.026;2022-12-11T01:06:27;97904.00;;;3.63;95.79
68107;BME280;54892;47.488;19.026;2022-12-11T01:09:32;97898.50;;;3.60;95.71
68107;BME280;54892;47.488;19.026;2022-12-11T01:12:55;97900.34;;;3.49;96.37
68107;BME280;54892;47.488;19.026;2022-12-11T01:15:58;97906.59;;;3.58;96.27
68107;BME280;54892;47.488;19.026;2022-12-11T01:19:03;97908.94;;;3.49;95.55
68107;BME280;54892;47.488;19.026;2022-12-11T01:22:17;97924.06;;;3.47;95.59
68107;BME280;54892;47.488;19.026;2022-12-11T01:25:22;97916.78;;;3.39;96.28
68107;BME280;54892;47.488;19.026;2022-12-11T01:28:26;97919.63;;;3.32;96.37
68107;BME280;54892;47.488;19.026;2022-12-11T01:31:30;97915.97;;;3.39;94.94
68107;BME280;54892;47.488;19.026;2022-12-11T01:34:33;97928.78;;;3.40;95.07
68107;BME280;54892;47.488;19.026;2022-12-11T01:37:37;97930.84;;;3.33;95.25
68107;BME280;54892;47.488;19.026;2022-12-11T01:40:46;97927.44;;;3.38;95.12
68107;BME280;54892;47.488;19.026;2022-12-11T01:44:02;97934.22;;;3.39;94.54
68107;BME280;54892;47.488;19.026;2022-12-11T01:47:05;97924.06;;;3.27;95.05
68107;BME280;54892;47.488;19.026;2022-12-11T01:50:09;97923.00;;;3.28;94.63
68107;BME280;54892;47.488;19.026;2022-12-11T01:53:17;97927.44;;;3.38;93.71
68107;BME280;54892;47.488;19.026;2022-12-11T01:56:23;97918.56;;;3.28;93.87
68107;BME280;54892;47.488;19.026;2022-12-11T01:59:30;97932.91;;;3.26;93.59
68107;BME280;54892;47.488;19.026;2022-12-11T02:02:34;97933.97;;;3.35;93.05
68107;BME280;54892;47.488;19.026;2022-12-11T02:05:38;97926.38;;;3.23;92.73
68107;BME280;54892;47.488;19.026;2022-12-11T02:08:42;97926.13;;;3.19;92.48
68107;BME280;54892;47.488;19.026;2022-12-11T02:11:54;97931.03;;;3.11;92.84
68107;BME280;54892;47.488;19.026;2022-12-11T02:15:07;97919.81;;;3.05;92.93
68107;BME280;54892;47.488;19.026;2022-12-11T02:18:17;97914.06;;;2.98;92.87
68107;BME280;54892;47.488;19.026;2022-12-11T02:21:24;97918.78;;;3.06;93.30
68107;BME280;54892;47.488;19.026;2022-12-11T02:24:46;97920.34;;;3.02;92.94
68107;BME280;54892;47.488;19.026;2022-12-11T02:28:07;97915.59;;;2.88;92.17
68107;BME280;54892;47.488;19.026;2022-12-11T02:31:14;97903.09;;;2.91;92.43
68107;BME280;54892;47.488;19.026;2022-12-11T02:34:23;97922.63;;;2.83;92.93
68107;BME280;54892;47.488;19.026;2022-12-11T02:37:30;97905.16;;;2.78;93.25
68107;BME280;54892;47.488;19.026;2022-12-11T02:40:38;97903.53;;;2.67;93.47
68107;BME280;54892;47.488;19.026;2022-12-11T02:43:44;97897.81;;;2.70;92.88
68107;BME280;54892;47.488;19.026;2022-12-11T02:46:52;97897.78;;;2.59;93.25
68107;BME280;54892;47.488;19.026;2022-12-11T02:49:59;97898.09;;;2.68;92.56
68107;BME280;54892;47.488;19.026;2022-12-11T02:53:05;97899.59;;;2.59;92.89
68107;BME280;54892;47.488;19.026;2022-12-11T02:56:12;97885.75;;;2.43;93.35
68107;BME280;54892;47.488;19.026;2022-12-11T02:59:24;97898.25;;;2.51;93.72
68107;BME280;54892;47.488;19.026;2022-12-11T03:02:29;97898.72;;;2.38;93.34
68107;BME280;54892;47.488;19.026;2022-12-11T03:05:33;97902.38;;;2.37;93.41
68107;BME280;54892;47.488;19.026;2022-12-11T03:08:37;97898.72;;;2.33;93.15
68107;BME280;54892;47.488;19.026;2022-12-11T03:11:41;97874.22;;;2.28;92.94
68107;BME280;54892;47.488;19.026;2022-12-11T03:14:46;97888.22;;;2.22;93.67
68107;BME280;54892;47.488;19.026;2022-12-11T03:17:58;97888.72;;;2.19;93.84
68107;BME280;54892;47.488;19.026;2022-12-11T03:21:05;97881.97;;;2.18;93.68
68107;BME280;54892;47.488;19.026;2022-12-11T03:24:14;97887.97;;;2.19;93.92
68107;BME280;54892;47.488;19.026;2022-12-11T03:27:25;97879.88;;;2.20;93.91
68107;BME280;54892;47.488;19.026;2022-12-11T03:30:32;97889.53;;;2.20;93.80
68107;BME280;54892;47.488;19.026;2022-12-11T03:33:39;97896.81;;;2.18;93.48
68107;BME280;54892;47.488;19.026;2022-12-11T03:36:46;97898.19;;;2.31;92.99
68107;BME280;54892;47.488;19.026;2022-12-11T03:39:55;97892.91;;;2.15;93.02
68107;BME280;54892;47.488;19.026;2022-12-11T03:43:00;97884.56;;;2.13;93.19
68107;BME280;54892;47.488;19.026;2022-12-11T03:46:06;97887.16;;;2.13;93.31
68107;BME280;54892;47.488;19.026;2022-12-11T03:49:15;97895.50;;;2.20;93.56
68107;BME280;54892;47.488;19.026;2022-12-11T03:52:20;97885.06;;;2.10;93.61
68107;BME280;54892;47.488;19.026;2022-12-11T03:55:25;97895.50;;;2.20;92.36
68107;BME280;54892;47.488;19.026;2022-12-11T03:58:30;97902.50;;;2.15;92.55
68107;BME280;54892;47.488;19.026;2022-12-11T04:01:35;97893.16;;;2.19;92.48
68107;BME280;54892;47.488;19.026;2022-12-11T04:04:41;97899.91;;;2.15;92.72
68107;BME280;54892;47.488;19.026;2022-12-11T04:07:45;97899.59;;;2.06;92.99
68107;BME280;54892;47.488;19.026;2022-12-11T04:10:49;97899.09;;;2.09;93.25
68107;BME280;54892;47.488;19.026;2022-12-11T04:14:14;97911.84;;;2.10;92.98
68107;BME280;54892;47.488;19.026;2022-12-11T04:17:36;97916.59;;;2.19;91.38
68107;BME280;54892;47.488;19.026;2022-12-11T04:20:57;97905.87;;;2.10;92.51
68107;BME280;54892;47.488;19.026;2022-12-11T04:24:18;97908.53;;;2.20;92.35
68107;BME280;54892;47.488;19.026;2022-12-11T04:27:22;97910.88;;;2.22;92.17
68107;BME280;54892;47.488;19.026;2022-12-11T04:30:47;97923.06;;;2.11;92.18
68107;BME280;54892;47.488;19.026;2022-12-11T04:33:53;97946.22;;;2.12;92.30
68107;BME280;54892;47.488;19.026;2022-12-11T04:36:56;97930.03;;;2.05;92.90
68107;BME280;54892;47.488;19.026;2022-12-11T04:40:00;97935.19;;;2.00;92.77
68107;BME280;54892;47.488;19.026;2022-12-11T04:43:03;97938.00;;;1.93;92.62
68107;BME280;54892;47.488;19.026;2022-12-11T04:46:08;97948.16;;;1.95;92.83
68107;BME280;54892;47.488;19.026;2022-12-11T04:49:14;97943.06;;;2.05;91.90
68107;BME280;54892;47.488;19.026;2022-12-11T04:52:17;97953.63;;;1.93;93.06
68107;BME280;54892;47.488;19.026;2022-12-11T04:55:20;97960.19;;;2.01;92.62
68107;BME280;54892;47.488;19.026;2022-12-11T04:58:24;97956.81;;;2.01;92.88
68107;BME280;54892;47.488;19.026;2022-12-11T05:01:28;97972.22;;;2.12;92.32
68107;BME280;54892;47.488;19.026;2022-12-11T05:04:33;97965.41;;;2.01;92.55
68107;BME280;54892;47.488;19.026;2022-12-11T05:07:37;97967.03;;;2.12;91.25
68107;BME280;54892;47.488;19.026;2022-12-11T05:10:42;97992.72;;;2.04;91.74
68107;BME280;54892;47.488;19.026;2022-12-11T05:13:49;97983.66;;;2.06;91.86
68107;BME280;54892;47.488;19.026;2022-12-11T05:16:54;97994.81;;;2.02;92.35
68107;BME280;54892;47.488;19.026;2022-12-11T05:19:59;97987.78;;;2.02;92.05
68107;BME280;54892;47.488;19.026;2022-12-11T05:23:02;97984.62;;;2.00;91.43
68107;BME280;54892;47.488;19.026;2022-12-11T05:26:07;97987.25;;;2.00;92.30
68107;BME280;54892;47.488;19.026;2022-12-11T05:29:10;97988.03;;;2.01;91.05
68107;BME280;54892;47.488;19.026;2022-12-11T05:32:14;97996.69;;;2.11;91.36
68107;BME280;54892;47.488;19.026;2022-12-11T05:35:22;97986.22;;;2.01;91.30
68107;BME280;54892;47.488;19.026;2022-12-11T05:38:25;97989.63;;;2.02;91.65
68107;BME280;54892;47.488;19.026;2022-12-11T05:41:30;97983.03;;;1.94;91.19
68107;BME280;54892;47.488;19.026;2022-12-11T05:44:34;97983.59;;;2.01;91.13
68107;BME280;54892;47.488;19.026;2022-12-11T05:47:37;97999.91;;;1.91;91.77
68107;BME280;54892;47.488;19.026;2022-12-11T05:50:42;97979.22;;;2.07;90.62
68107;BME280;54892;47.488;19.026;2022-12-11T05:53:48;97981.22;;;1.94;90.61
68107;BME280;54892;47.488;19.026;2022-12-11T05:56:52;97993.72;;;1.97;90.90
68107;BME280;54892;47.488;19.026;2022-12-11T05:59:57;97996.34;;;1.97;90.65
68107;BME280;54892;47.488;19.026;2022-12-11T06:03:01;97995.25;;;1.93;90.69
68107;BME280;54892;47.488;19.026;2022-12-11T06:06:06;97996.78;;;1.89;90.70
68107;BME280;54892;47.488;19.026;2022-12-11T06:09:12;98032.47;;;1.94;90.46
68107;BME280;54892;47.488;19.026;2022-12-11T06:12:16;98024.22;;;1.75;90.53
68107;BME280;54892;47.488;19.026;2022-12-11T06:15:19;98025.31;;;1.79;90.53
68107;BME280;54892;47.488;19.026;2022-12-11T06:18:23;98042.69;;;1.73;90.56
68107;BME280;54892;47.488;19.026;2022-12-11T06:21:29;98042.41;;;1.75;91.15
68107;BME280;54892;47.488;19.026;2022-12-11T06:24:33;98053.97;;;1.84;90.92
68107;BME280;54892;47.488;19.026;2022-12-11T06:27:36;98052.00;;;1.96;89.37
68107;BME280;54892;47.488;19.026;2022-12-11T06:30:40;98053.66;;;1.80;89.30
68107;BME280;54892;47.488;19.026;2022-12-11T06:33:43;98054.25;;;1.88;89.01
68107;BME280;54892;47.488;19.026;2022-12-11T06:36:48;98061.72;;;1.79;89.79
68107;BME280;54892;47.488;19.026;2022-12-11T06:39:52;98073.25;;;1.88;89.85
68107;BME280;54892;47.488;19.026;2022-12-11T06:42:55;98082.59;;;1.84;89.70
68107;BME280;54892;47.488;19.026;2022-12-11T06:45:58;98086.59;;;1.97;89.28
68107;BME280;54892;47.488;19.026;2022-12-11T06:49:04;98083.16;;;1.91;89.30
68107;BME280;54892;47.488;19.026;2022-12-11T06:52:09;98091.72;;;1.87;89.82
68107;BME280;54892;47.488;19.026;2022-12-11T06:55:15;98081.37;;;1.92;89.05
68107;BME280;54892;47.488;19.026;2022-12-11T06:58:19;98084.16;;;1.85;89.17
68107;BME280;54892;47.488;19.026;2022-12-11T07:01:23;98098.00;;;1.91;88.38
68107;BME280;54892;47.488;19.026;2022-12-11T07:04:27;98103.63;;;1.82;89.13
68107;BME280;54892;47.488;19.026;2022-12-11T07:07:32;98095.09;;;1.87;88.49
68107;BME280;54892;47.488;19.026;2022-12-11T07:10:36;98091.78;;;1.92;88.35
68107;BME280;54892;47.488;19.026;2022-12-11T07:13:40;98095.59;;;1.84;88.23
68107;BME280;54892;47.488;19.026;2022-12-11T07:16:44;98074.78;;;1.84;88.03
68107;BME280;54892;47.488;19.026;2022-12-11T07:19:48;98111.88;;;1.74;88.38
68107;BME280;54892;47.488;19.026;2022-12-11T07:22:55;98086.97;;;1.78;87.13
68107;BME280;54892;47.488;19.026;2022-12-11T07:26:03;98098.62;;;1.76;88.46
68107;BME280;54892;47.488;19.026;2022-12-11T07:29:07;98129.44;;;1.89;87.28
68107;BME280;54892;47.488;19.026;2022-12-11T07:32:12;98106.03;;;1.89;87.45
68107;BME280;54892;47.488;19.026;2022-12-11T07:35:15;98113.81;;;1.84;87.38
68107;BME280;54892;47.488;19.026;2022-12-11T07:38:21;98106.47;;;1.81;86.89
68107;BME280;54892;47.488;19.026;2022-12-11T07:41:24;98109.63;;;1.83;86.46
68107;BME280;54892;47.488;19.026;2022-12-11T07:44:29;98132.00;;;1.84;87.19
68107;BME280;54892;47.488;19.026;2022-12-11T07:47:32;98119.66;;;1.96;86.05
68107;BME280;54892;47.488;19.026;2022-12-11T07:50:36;98132.59;;;1.91;86.33
68107;BME280;54892;47.488;19.026;2022-12-11T07:53:41;98141.50;;;1.95;85.70
68107;BME280;54892;47.488;19.026;2022-12-11T07:56:46;98167.50;;;1.95;86.38
68107;BME280;54892;47.488;19.026;2022-12-11T07:59:54;98178.50;;;2.03;85.54
68107;BME280;54892;47.488;19.026;2022-12-11T08:02:58;98172.88;;;2.11;85.50
68107;BME280;54892;47.488;19.026;2022-12-11T08:06:01;98178.94;;;1.94;85.26
68107;BME280;54892;47.488;19.026;2022-12-11T08:09:08;98187.19;;;1.86;85.82
68107;BME280;54892;47.488;19.026;2022-12-11T08:12:13;98175.03;;;1.92;85.60
68107;BME280;54892;47.488;19.026;2022-12-11T08:15:17;98191.88;;;1.89;85.26
68107;BME280;54892;47.488;19.026;2022-12-11T08:18:22;98197.22;;;2.00;84.48
68107;BME280;54892;47.488;19.026;2022-12-11T08:21:27;98202.44;;;2.00;85.55
68107;BME280;54892;47.488;19.026;2022-12-11T08:24:32;98221.19;;;2.02;84.40
68107;BME280;54892;47.488;19.026;2022-12-11T08:27:35;98218.63;;;2.07;84.08
68107;BME280;54892;47.488;19.026;2022-12-11T08:30:39;98229.19;;;2.17;83.34
68107;BME280;54892;47.488;19.026;2022-12-11T08:33:43;98238.50;;;2.13;83.42
68107;BME280;54892;47.488;19.026;2022-12-11T08:36:46;98244.78;;;2.17;83.33
68107;BME280;54892;47.488;19.026;2022-12-11T08:39:51;98248.06;;;2.07;83.92
68107;BME280;54892;47.488;19.026;2022-12-11T08:42:55;98248.53;;;2.04;83.52
68107;BME280;54892;47.488;19.026;2022-12-11T08:45:59;98262.03;;;2.01;83.04
68107;BME280;54892;47.488;19.026;2022-12-11T08:49:02;98261.72;;;1.97;83.50
68107;BME280;54892;47.488;19.026;2022-12-11T08:52:07;98267.59;;;2.10;83.46
68107;BME280;54892;47.488;19.026;2022-12-11T08:55:12;98274.31;;;2.06;83.03
68107;BME280;54892;47.488;19.026;2022-12-11T08:58:16;98293.91;;;2.13;83.26
68107;BME280;54892;47.488;19.026;2022-12-11T09:01:21;98289.56;;;2.19;82.82
68107;BME280;54892;47.488;19.026;2022-12-11T09:04:25;98304.09;;;2.15;82.18
68107;BME280;54892;47.488;19.026;2022-12-11T09:07:28;98310.09;;;2.16;82.41
68107;BME280;54892;47.488;19.026;2022-12-11T09:10:32;98293.31;;;2.06;81.85
68107;BME280;54892;47.488;19.026;2022-12-11T09:13:36;98306.63;;;2.10;81.96
68107;BME280;54892;47.488;19.026;2022-12-11T09:16:39;98306.38;;;2.11;81.61
68107;BME280;54892;47.488;19.026;2022-12-11T09:19:43;98295.59;;;2.03;82.74
68107;BME280;54892;47.488;19.026;2022-12-11T09:22:46;98290.41;;;2.03;83.61
68107;BME280;54892;47.488;19.026;2022-12-11T09:25:51;98289.25;;;2.16;83.29
68107;BME280;54892;47.488;19.026;2022-12-11T09:28:55;98290.19;;;2.26;82.32
68107;BME280;54892;47.488;19.026;2022-12-11T09:32:01;98308.41;;;2.26;82.23
68107;BME280;54892;47.488;19.026;2022-12-11T09:35:06;98306.09;;;2.08;81.44
68107;BME280;54892;47.488;19.026;2022-12-11T09:38:10;98311.91;;;2.15;81.72
68107;BME280;54892;47.488;19.026;2022-12-11T09:41:33;98302.25;;;2.33;80.45
68107;BME280;54892;47.488;19.026;2022-12-11T09:44:40;98305.72;;;2.21;81.00
68107;BME280;54892;47.488;19.026;2022-12-11T09:47:47;98300.78;;;2.20;80.83
68107;BME280;54892;47.488;19.026;2022-12-11T09:50:53;98295.28;;;2.16;81.28
68107;BME280;54892;47.488;19.026;2022-12-11T09:53:59;98294.84;;;2.24;80.51
68107;BME280;54892;47.488;19.026;2022-12-11T09:57:14;98296.13;;;2.22;80.35
68107;BME280;54892;47.488;19.026;2022-12-11T10:00:26;98301.37;;;2.27;81.20
68107;BME280;54892;47.488;19.026;2022-12-11T10:03:42;98277.41;;;2.25;80.46
68107;BME280;54892;47.488;19.026;2022-12-11T10:07:00;98277.91;;;2.22;80.47
68107;BME280;54892;47.488;19.026;2022-12-11T10:10:15;98255.72;;;2.19;80.40
68107;BME280;54892;47.488;19.026;2022-12-11T10:13:29;98263.69;;;2.35;79.66
68107;BME280;54892;47.488;19.026;2022-12-11T10:16:38;98264.72;;;2.34;79.68
68107;BME280;54892;47.488;19.026;2022-12-11T10:19:43;98264.16;;;2.26;79.41
68107;BME280;54892;47.488;19.026;2022-12-11T10:22:48;98283.69;;;2.29;79.64
68107;BME280;54892;47.488;19.026;2022-12-11T10:25:55;98276.13;;;2.27;79.84
68107;BME280;54892;47.488;19.026;2022-12-11T10:29:12;98293.34;;;2.28;80.26
68107;BME280;54892;47.488;19.026;2022-12-11T10:32:21;98310.63;;;2.40;79.55
68107;BME280;54892;47.488;19.026;2022-12-11T10:35:30;98304.59;;;2.34;79.24
68107;BME280;54892;47.488;19.026;2022-12-11T10:38:39;98301.25;;;2.39;79.67
68107;BME280;54892;47.488;19.026;2022-12-11T10:41:45;98303.31;;;2.37;79.53
68107;BME280;54892;47.488;19.026;2022-12-11T10:45:00;98307.75;;;2.36;79.36
68107;BME280;54892;47.488;19.026;2022-12-11T10:48:06;98306.28;;;2.23;80.30
68107;BME280;54892;47.488;19.026;2022-12-11T10:51:12;98318.25;;;2.24;80.02
68107;BME280;54892;47.488;19.026;2022-12-11T10:54:26;98319.41;;;2.34;79.52
68107;BME280;54892;47.488;19.026;2022-12-11T10:57:33;98339.00;;;2.19;79.91
68107;BME280;54892;47.488;19.026;2022-12-11T11:00:40;98336.38;;;2.14;80.13
68107;BME280;54892;47.488;19.026;2022-12-11T11:03:53;98334.50;;;2.32;80.19
68107;BME280;54892;47.488;19.026;2022-12-11T11:07:02;98332.84;;;2.25;79.66
68107;BME280;54892;47.488;19.026;2022-12-11T11:10:14;98338.31;;;2.24;79.38
68107;BME280;54892;47.488;19.026;2022-12-11T11:13:20;98325.53;;;2.22;79.48
68107;BME280;54892;47.488;19.026;2022-12-11T11:16:24;98320.75;;;2.14;79.93
68107;BME280;54892;47.488;19.026;2022-12-11T11:19:30;98329.41;;;2.20;79.58
68107;BME280;54892;47.488;19.026;2022-12-11T11:22:37;98312.69;;;2.16;80.26
68107;BME280;54892;47.488;19.026;2022-12-11T11:25:48;98300.78;;;2.20;79.92
68107;BME280;54892;47.488;19.026;2022-12-11T11:28:55;98303.00;;;2.11;80.02
68107;BME280;54892;47.488;19.026;2022-12-11T11:32:13;98312.81;;;2.26;78.96
68107;BME280;54892;47.488;19.026;2022-12-11T11:35:20;98315.25;;;2.33;79.23
68107;BME280;54892;47.488;19.026;2022-12-11T11:38:25;98313.72;;;2.37;79.02
68107;BME280;54892;47.488;19.026;2022-12-11T11:41:33;98317.16;;;2.42;80.05
68107;BME280;54892;47.488;19.026;2022-12-11T11:44:46;98327.09;;;2.46;78.30
68107;BME280;54892;47.488;19.026;2022-12-11T11:48:01;98330.31;;;2.31;78.46
68107;BME280;54892;47.488;19.026;2022-12-11T11:51:13;98338.97;;;2.36;79.10
68107;BME280;54892;47.488;19.026;2022-12-11T11:54:24;98336.59;;;2.35;79.08
68107;BME280;54892;47.488;19.026;2022-12-11T11:57:36;98346.00;;;2.36;78.92
68107;BME280;54892;47.488;19.026;2022-12-11T12:00:43;98340.78;;;2.36;78.95
68107;BME280;54892;47.488;19.026;2022-12-11T12:03:48;98354.97;;;2.45;78.73
68107;BME280;54892;47.488;19.026;2022-12-11T12:07:10;98348.97;;;2.44;78.42
68107;BME280;54892;47.488;19.026;2022-12-11T12:10:21;98364.75;;;2.38;78.20
68107;BME280;54892;47.488;19.026;2022-12-11T12:13:31;98359.56;;;2.38;78.79
68107;BME280;54892;47.488;19.026;2022-12-11T12:17:04;98366.59;;;2.37;78.43
68107;BME280;54892;47.488;19.026;2022-12-11T12:20:18;98366.22;;;2.28;78.76
68107;BME280;54892;47.488;19.026;2022-12-11T12:23:51;98361.00;;;2.28;78.72
68107;BME280;54892;47.488;19.026;2022-12-11T12:27:00;98361.00;;;2.28;79.20
68107;BME280;54892;47.488;19.026;2022-12-11T12:30:14;98361.50;;;2.25;78.78
68107;BME280;54892;47.488;19.026;2022-12-11T12:33:30;98363.97;;;2.15;78.48
68107;BME280;54892;47.488;19.026;2022-12-11T12:36:41;98373.34;;;2.16;79.20
68107;BME280;54892;47.488;19.026;2022-12-11T12:39:54;98359.91;;;2.24;79.26
68107;BME280;54892;47.488;19.026;2022-12-11T12:43:13;98363.00;;;2.21;78.40
68107;BME280;54892;47.488;19.026;2022-12-11T12:46:26;98368.81;;;2.28;78.92
68107;BME280;54892;47.488;19.026;2022-12-11T12:49:37;98368.09;;;2.33;77.61
68107;BME280;54892;47.488;19.026;2022-12-11T12:52:43;98385.69;;;2.26;77.84
68107;BME280;54892;47.488;19.026;2022-12-11T12:55:48;98398.41;;;2.22;77.87
68107;BME280;54892;47.488;19.026;2022-12-11T12:58:52;98399.50;;;2.26;78.57
68107;BME280;54892;47.488;19.026;2022-12-11T13:01:57;98407.44;;;2.37;77.79
68107;BME280;54892;47.488;19.026;2022-12-11T13:05:16;98429.63;;;2.39;77.59
68107;BME280;54892;47.488;19.026;2022-12-11T13:08:25;98441.69;;;2.46;77.14
68107;BME280;54892;47.488;19.026;2022-12-11T13:11:31;98454.16;;;2.43;77.21
68107;BME280;54892;47.488;19.026;2022-12-11T13:14:36;98443.50;;;2.45;77.90
68107;BME280;54892;47.488;19.026;2022-12-11T13:17:39;98447.19;;;2.49;76.87
68107;BME280;54892;47.488;19.026;2022-12-11T13:20:46;98461.56;;;2.52;76.65
68107;BME280;54892;47.488;19.026;2022-12-11T13:23:53;98464.34;;;2.45;76.33
68107;BME280;54892;47.488;19.026;2022-12-11T13:27:08;98470.19;;;2.35;76.79
68107;BME280;54892;47.488;19.026;2022-12-11T13:30:21;98466.09;;;2.39;76.66
68107;BME280;54892;47.488;19.026;2022-12-11T13:33:26;98457.47;;;2.39;77.13
68107;BME280;54892;47.488;19.026;2022-12-11T13:36:32;98465.97;;;2.51;76.59
68107;BME280;54892;47.488;19.026;2022-12-11T13:39:38;98482.63;;;2.50;76.71
68107;BME280;54892;47.488;19.026;2022-12-11T13:42:47;98481.22;;;2.42;76.67
68107;BME280;54892;47.488;19.026;2022-12-11T13:45:53;98490.38;;;2.45;76.44
68107;BME280;54892;47.488;19.026;2022-12-11T13:49:00;98492.59;;;2.36;76.65
68107;BME280;54892;47.488;19.026;2022-12-11T13:52:05;98482.56;;;2.28;76.49
68107;BME280;54892;47.488;19.026;2022-12-11T13:55:22;98493.38;;;2.37;76.26
68107;BME280;54892;47.488;19.026;2022-12-11T13:58:27;98491.78;;;2.36;76.26
68107;BME280;54892;47.488;19.026;2022-12-11T14:01:33;98502.22;;;2.36;76.18
68107;BME280;54892;47.488;19.026;2022-12-11T14:04:37;98508.53;;;2.40;75.32
68107;BME280;54892;47.488;19.026;2022-12-11T14:07:46;98518.09;;;2.34;76.56
68107;BME280;54892;47.488;19.026;2022-12-11T14:10:53;98509.41;;;2.28;75.89
68107;BME280;54892;47.488;19.026;2022-12-11T14:13:58;98523.19;;;2.29;76.62
68107;BME280;54892;47.488;19.026;2022-12-11T14:17:03;98523.03;;;2.36;77.13
68107;BME280;54892;47.488;19.026;2022-12-11T14:20:16;98531.19;;;2.39;76.39
68107;BME280;54892;47.488;19.026;2022-12-11T14:23:22;98534.88;;;2.26;77.19
68107;BME280;54892;47.488;19.026;2022-12-11T14:26:30;98538.81;;;2.29;76.47
68107;BME280;54892;47.488;19.026;2022-12-11T14:29:33;98549.19;;;2.24;76.23
68107;BME280;54892;47.488;19.026;2022-12-11T14:32:42;98552.41;;;2.31;76.54
68107;BME280;54892;47.488;19.026;2022-12-11T14:35:49;98560.59;;;2.23;77.35
68107;BME280;54892;47.488;19.026;2022-12-11T14:38:56;98576.53;;;2.26;77.40
68107;BME280;54892;47.488;19.026;2022-12-11T14:42:06;98579.06;;;2.21;77.55
68107;BME280;54892;47.488;19.026;2022-12-11T14:45:23;98576.59;;;2.15;78.24
68107;BME280;54892;47.488;19.026;2022-12-11T14:48:35;98579.84;;;2.22;77.96
68107;BME280;54892;47.488;19.026;2022-12-11T14:51:45;98586.09;;;2.21;79.00
68107;BME280;54892;47.488;19.026;2022-12-11T14:54:55;98585.88;;;2.10;79.58
68107;BME280;54892;47.488;19.026;2022-12-11T14:58:10;98580.22;;;2.13;79.17
68107;BME280;54892;47.488;19.026;2022-12-11T15:01:23;98591.09;;;2.10;79.66
68107;BME280;54892;47.488;19.026;2022-12-11T15:04:32;98589.91;;;2.01;79.00
68107;BME280;54892;47.488;19.026;2022-12-11T15:07:35;98588.97;;;2.07;79.46
68107;BME280;54892;47.488;19.026;2022-12-11T15:10:42;98600.41;;;1.77;79.63
68107;BME280;54892;47.488;19.026;2022-12-11T15:13:59;98592.06;;;1.75;79.52
68107;BME280;54892;47.488;19.026;2022-12-11T15:17:11;98615.63;;;1.97;79.24
68107;BME280;54892;47.488;19.026;2022-12-11T15:20:24;98613.84;;;1.86;78.25
68107;BME280;54892;47.488;19.026;2022-12-11T15:23:28;98603.22;;;1.76;79.35
68107;BME280;54892;47.488;19.026;2022-12-11T15:26:34;98605.81;;;1.88;78.82
68107;BME280;54892;47.488;19.026;2022-12-11T15:29:40;98607.53;;;1.82;79.32
68107;BME280;54892;47.488;19.026;2022-12-11T15:32:48;98610.47;;;2.03;78.38
68107;BME280;54892;47.488;19.026;2022-12-11T15:35:56;98618.94;;;1.81;78.26
68107;BME280;54892;47.488;19.026;2022-12-11T15:39:03;98608.75;;;1.79;77.58
68107;BME280;54892;47.488;19.026;2022-12-11T15:42:12;98619.78;;;1.70;77.95
68107;BME280;54892;47.488;19.026;2022-12-11T15:45:26;98626.47;;;1.65;77.40
68107;BME280;54892;47.488;19.026;2022-12-11T15:48:31;98616.63;;;1.67;77.63
68107;BME280;54892;47.488;19.026;2022-12-11T15:51:35;98616.94;;;1.71;77.43
68107;BME280;54892;47.488;19.026;2022-12-11T15:54:44;98627.09;;;1.73;77.48
68107;BME280;54892;47.488;19.026;2022-12-11T15:57:50;98622.69;;;1.85;76.98
68107;BME280;54892;47.488;19.026;2022-12-11T16:00:57;98623.41;;;1.69;77.10
68107;BME280;54892;47.488;19.026;2022-12-11T16:04:02;98622.91;;;1.72;76.06
68107;BME280;54892;47.488;19.026;2022-12-11T16:07:18;98623.06;;;1.65;76.66
68107;BME280;54892;47.488;19.026;2022-12-11T16:10:26;98625.91;;;1.63;75.43
68107;BME280;54892;47.488;19.026;2022-12-11T16:13:30;98642.75;;;1.61;75.49
68107;BME280;54892;47.488;19.026;2022-12-11T16:16:35;98640.94;;;1.61;75.80
68107;BME280;54892;47.488;19.026;2022-12-11T16:19:39;98645.25;;;1.56;75.05
68107;BME280;54892;47.488;19.026;2022-12-11T16:22:43;98647.59;;;1.57;75.00
68107;BME280;54892;47.488;19.026;2022-12-11T16:25:47;98641.50;;;1.51;75.26
68107;BME280;54892;47.488;19.026;2022-12-11T16:28:51;98646.50;;;1.53;75.00
68107;BME280;54892;47.488;19.026;2022-12-11T16:31:56;98656.47;;;1.44;75.40